Time;durP1;ratioP1;P1;durP2;ratioP2;P2;SDS_P1;SDS_P2;PMS_P1;PMS_P2;Temp;Humidity;BMP_temperature;BMP_pressure;BME280_temperature;BME280_humidity;BME280_pressure;Samples;Min_cycle;Max_cycle;Signal;HPM_P1;HPM_P2
2023/07/09 00:02:28;;;;;;;23.02;13.05;;;;;;;23.87;70.31;101546.69;5111164;28;20039;-62
2023/07/09 00:04:53;;;;;;;20.38;12.38;;;;;;;23.81;70.30;101545.50;5094624;28;20386;-62
2023/07/09 00:07:27;;;;;;;17.90;11.43;;;;;;;23.90;70.13;101549.06;5115526;28;20050;-61
2023/07/09 00:09:54;;;;;;;16.85;11.27;;;;;;;23.85;69.80;101549.56;5111309;28;20031;-62
2023/07/09 00:12:19;;;;;;;13.60;11.00;;;;;;;23.94;69.59;101545.88;5115347;28;20076;-62
2023/07/09 00:14:45;;;;;;;18.65;11.38;;;;;;;23.97;69.46;101550.97;5097221;28;20036;-62
2023/07/09 00:17:19;;;;;;;18.25;11.07;;;;;;;23.94;69.96;101559.47;5097044;28;20023;-61
2023/07/09 00:19:47;;;;;;;16.58;10.73;;;;;;;23.90;70.16;101563.50;5097166;28;20024;-61
2023/07/09 00:22:17;;;;;;;16.58;10.20;;;;;;;23.86;70.33;101562.16;5101849;28;20035;-62
2023/07/09 00:24:44;;;;;;;18.42;11.13;;;;;;;23.79;70.56;101569.25;5096465;28;20024;-61
2023/07/09 00:27:11;;;;;;;18.05;10.55;;;;;;;23.83;70.36;101558.94;5115217;28;20089;-61
2023/07/09 00:29:37;;;;;;;17.15;10.85;;;;;;;23.76;70.65;101564.16;5083924;28;20074;-61
2023/07/09 00:32:04;;;;;;;18.05;11.07;;;;;;;23.75;70.14;101568.75;5094750;28;20036;-61
2023/07/09 00:34:30;;;;;;;14.38;9.57;;;;;;;23.72;70.69;101563.63;5095825;28;20367;-61
2023/07/09 00:36:58;;;;;;;14.45;10.10;;;;;;;23.65;70.99;101567.13;5094819;28;20023;-61
2023/07/09 00:39:26;;;;;;;17.00;10.57;;;;;;;23.68;70.99;101570.41;5094212;28;20475;-61
2023/07/09 00:41:52;;;;;;;12.57;9.80;;;;;;;23.74;71.16;101571.63;5097418;28;20034;-61
2023/07/09 00:44:20;;;;;;;16.38;10.57;;;;;;;23.60;71.81;101573.06;5077808;27;20031;-61
2023/07/09 00:46:46;;;;;;;13.52;10.48;;;;;;;23.69;71.42;101572.09;5116393;27;20027;-61
2023/07/09 00:49:17;;;;;;;14.52;10.43;;;;;;;23.68;71.56;101573.13;5115097;28;20110;-61
2023/07/09 00:51:46;;;;;;;16.20;10.82;;;;;;;23.59;71.87;101579.53;5096948;28;20026;-61
2023/07/09 00:54:30;;;;;;;15.18;10.90;;;;;;;23.49;72.26;101579.66;5114323;28;20058;-61
2023/07/09 00:56:59;;;;;;;12.98;9.93;;;;;;;23.34;73.20;101573.13;5111361;28;20068;-61
2023/07/09 00:59:28;;;;;;;;;;;;;;;23.70;70.14;101576.53;5110548;28;20084;-61
2023/07/09 01:02:00;;;;;;;13.75;10.15;;;;;;;23.47;73.37;101578.97;5114790;28;20302;-61
2023/07/09 01:04:26;;;;;;;12.85;10.13;;;;;;;23.40;73.75;101572.47;5114401;28;20023;-61
2023/07/09 01:06:54;;;;;;;15.68;10.18;;;;;;;23.39;73.96;101573.50;5095488;28;20101;-61
2023/07/09 01:09:23;;;;;;;12.40;9.37;;;;;;;23.39;73.89;101565.34;5114122;28;20024;-61
2023/07/09 01:11:49;;;;;;;15.40;9.15;;;;;;;23.41;73.71;101568.75;5114690;28;20030;-61
2023/07/09 01:14:21;;;;;;;12.02;9.52;;;;;;;23.21;74.39;101554.59;5114209;28;20027;-61
2023/07/09 01:16:56;;;;;;;14.75;10.05;;;;;;;23.12;75.00;101569.97;5103701;28;20032;-61
2023/07/09 01:19:28;;;;;;;12.85;9.50;;;;;;;23.16;75.04;101561.53;5093751;28;20070;-61
2023/07/09 01:21:59;;;;;;;12.35;10.38;;;;;;;23.08;75.36;101560.44;5059408;28;20103;-61
2023/07/09 01:24:46;;;;;;;14.05;10.15;;;;;;;23.30;74.10;101564.47;5093340;28;20464;-62
2023/07/09 01:27:11;;;;;;;11.90;9.15;;;;;;;23.09;75.03;101562.16;5108360;28;20027;-61
2023/07/09 01:29:41;;;;;;;13.48;9.63;;;;;;;23.15;75.31;101571.53;5113666;28;20433;-62
2023/07/09 01:32:07;;;;;;;13.05;9.63;;;;;;;23.13;75.42;101565.41;5113997;28;20020;-61
2023/07/09 01:34:33;;;;;;;10.57;9.45;;;;;;;23.17;75.24;101564.06;5096415;28;20031;-61
2023/07/09 01:36:58;;;;;;;13.25;9.05;;;;;;;23.11;75.52;101562.84;5076640;28;20072;-61
2023/07/09 01:39:28;;;;;;;13.20;9.90;;;;;;;23.07;75.44;101574.19;5097705;28;20027;-61
2023/07/09 01:41:56;;;;;;;12.27;9.93;;;;;;;23.08;75.71;101573.16;5079117;28;20043;-62
2023/07/09 01:44:23;;;;;;;17.70;9.80;;;;;;;22.98;75.96;101575.16;5113365;28;20153;-61
2023/07/09 01:46:48;;;;;;;15.68;9.40;;;;;;;22.98;76.21;101575.16;5094754;28;20104;-61
2023/07/09 01:49:14;;;;;;;13.82;9.70;;;;;;;22.93;76.40;101580.16;5113666;28;20062;-61
2023/07/09 01:51:42;;;;;;;13.10;10.38;;;;;;;22.75;77.69;101582.94;5077033;28;20024;-62
2023/07/09 01:54:08;;;;;;;16.33;10.00;;;;;;;22.88;77.03;101580.63;5093109;28;20101;-61
2023/07/09 01:56:38;;;;;;;16.77;10.27;;;;;;;22.82;77.18;101587.53;5094279;28;20065;-61
2023/07/09 01:59:04;;;;;;;12.52;9.68;;;;;;;22.93;77.46;101589.16;5099054;28;20035;-61
2023/07/09 02:01:30;;;;;;;13.55;9.85;;;;;;;22.67;78.93;101592.69;5082529;28;20024;-62
2023/07/09 02:03:55;;;;;;;15.68;10.20;;;;;;;22.79;77.95;101584.31;5095234;28;20036;-61
2023/07/09 02:06:24;;;;;;;14.00;9.93;;;;;;;22.65;78.71;101581.16;5106167;28;20124;-61
2023/07/09 02:08:50;;;;;;;13.88;9.75;;;;;;;22.72;78.11;101586.81;5093849;28;20049;-61
2023/07/09 02:11:15;;;;;;;13.35;9.52;;;;;;;22.63;78.72;101588.59;5093334;28;20031;-61
2023/07/09 02:13:40;;;;;;;13.82;10.30;;;;;;;22.62;78.83;101594.19;5112178;27;20031;-61
2023/07/09 02:16:06;;;;;;;13.10;10.38;;;;;;;22.71;78.83;101604.09;5084559;28;20023;-61
2023/07/09 02:18:33;;;;;;;12.35;10.18;;;;;;;22.66;78.80;101598.28;5099435;28;20070;-61
2023/07/09 02:20:59;;;;;;;11.55;10.45;;;;;;;22.47;79.35;101579.47;5089739;28;20039;-61
2023/07/09 02:23:28;;;;;;;14.63;9.75;;;;;;;22.37;80.61;101585.84;5077537;28;20022;-61
2023/07/09 02:25:53;;;;;;;11.98;10.43;;;;;;;22.43;80.09;101577.09;5095042;28;20027;-61
2023/07/09 02:28:19;;;;;;;12.50;10.32;;;;;;;22.44;80.14;101588.78;5092463;28;20035;-61
2023/07/09 02:30:47;;;;;;;16.50;10.85;;;;;;;22.65;79.20;101586.59;5112212;28;20494;-61
2023/07/09 02:33:12;;;;;;;14.00;10.52;;;;;;;22.56;79.48;101584.84;5112209;27;20023;-61
2023/07/09 02:35:40;;;;;;;14.13;10.15;;;;;;;22.51;79.46;101581.72;5114072;27;20027;-61
2023/07/09 02:38:05;;;;;;;14.50;10.65;;;;;;;22.55;79.10;101584.97;5099650;28;20429;-62
2023/07/09 02:40:31;;;;;;;15.30;11.05;;;;;;;22.62;78.75;101592.34;5089156;28;20035;-61
2023/07/09 02:42:56;;;;;;;12.77;10.75;;;;;;;22.64;78.64;101586.75;5093604;28;20028;-62
2023/07/09 02:45:21;;;;;;;14.02;11.40;;;;;;;22.63;78.91;101588.59;5094298;28;20486;-62
2023/07/09 02:47:47;;;;;;;15.20;10.60;;;;;;;22.47;79.70;101591.16;5094150;28;20028;-62
2023/07/09 02:50:13;;;;;;;13.50;10.35;;;;;;;22.50;79.25;101587.28;5106458;27;20038;-62
2023/07/09 02:52:39;;;;;;;14.88;11.13;;;;;;;22.47;79.35;101588.47;5076730;28;20024;-61
2023/07/09 02:55:05;;;;;;;14.45;11.63;;;;;;;22.38;79.74;101594.81;5093006;28;20039;-61
2023/07/09 02:57:31;;;;;;;17.00;11.63;;;;;;;22.39;79.50;101583.84;5090156;28;20470;-62
2023/07/09 02:59:56;;;;;;;18.38;11.60;;;;;;;22.36;80.04;101588.72;5111842;28;20106;-62
2023/07/09 03:02:21;;;;;;;14.63;11.32;;;;;;;22.30;80.11;101582.06;5095105;27;20386;-61
2023/07/09 03:04:47;;;;;;;16.48;12.07;;;;;;;22.36;80.38;101586.00;5111022;28;20031;-61
2023/07/09 03:07:12;;;;;;;15.95;11.60;;;;;;;22.41;79.99;101587.25;5109722;28;20380;-61
2023/07/09 03:09:38;;;;;;;13.70;11.60;;;;;;;22.40;79.80;101590.09;5111215;28;20526;-61
2023/07/09 03:12:03;;;;;;;14.10;12.07;;;;;;;22.27;80.75;101584.25;5096699;28;20028;-61
2023/07/09 03:14:29;;;;;;;14.85;12.00;;;;;;;22.35;80.42;101587.00;5099348;27;20115;-62
2023/07/09 03:16:55;;;;;;;16.88;12.52;;;;;;;22.18;81.03;101580.59;5076012;28;20020;-62
2023/07/09 03:19:22;;;;;;;13.23;11.48;;;;;;;22.17;81.26;101597.84;5068519;28;20032;-62
2023/07/09 03:21:50;;;;;;;15.15;11.07;;;;;;;22.29;80.75;101585.75;5110077;28;20035;-62
2023/07/09 03:24:18;;;;;;;17.70;12.53;;;;;;;22.29;80.60;101598.47;5101725;28;20028;-62
2023/07/09 03:26:45;;;;;;;17.10;12.80;;;;;;;22.22;80.99;101596.38;5106135;28;20293;-61
2023/07/09 03:29:11;;;;;;;17.85;12.10;;;;;;;22.25;80.76;101584.38;5108776;28;20038;-61
2023/07/09 03:31:36;;;;;;;17.23;12.13;;;;;;;22.27;80.73;101590.50;5092669;28;20020;-62
2023/07/09 03:34:02;;;;;;;16.23;12.77;;;;;;;22.20;80.82;101579.41;5073572;28;20024;-62
2023/07/09 03:36:28;;;;;;;13.85;11.48;;;;;;;22.14;81.16;101584.56;5091681;28;20387;-62
2023/07/09 03:38:53;;;;;;;18.58;11.52;;;;;;;22.16;81.61;101588.84;5092942;28;20527;-63
2023/07/09 03:41:19;;;;;;;13.52;11.68;;;;;;;22.21;81.22;101585.72;5095833;28;20518;-62
2023/07/09 03:43:44;;;;;;;14.40;11.00;;;;;;;22.18;81.15;101586.88;5098539;28;20032;-62
2023/07/09 03:46:10;;;;;;;14.77;11.77;;;;;;;22.20;81.12;101589.41;5116211;28;20016;-62
2023/07/09 03:48:35;;;;;;;15.77;11.82;;;;;;;22.13;81.70;101593.72;5089666;28;20074;-61
2023/07/09 03:51:03;;;;;;;15.98;11.50;;;;;;;21.95;82.04;101561.19;5091287;28;20496;-62
2023/07/09 03:53:28;;;;;;;16.98;12.05;;;;;;;22.05;82.37;101585.50;5113715;28;20095;-62
2023/07/09 03:55:56;;;;;;;18.67;12.60;;;;;;;22.09;82.39;101595.00;5092631;28;20463;-62
2023/07/09 03:58:25;;;;;;;16.77;11.50;;;;;;;22.03;82.46;101579.38;5107630;27;20080;-62
2023/07/09 04:00:50;;;;;;;17.10;12.13;;;;;;;21.97;82.92;101592.56;5081722;27;20089;-62
2023/07/09 04:03:16;;;;;;;14.05;11.45;;;;;;;22.06;82.57;101588.06;5096706;28;20015;-62
2023/07/09 04:05:41;;;;;;;15.65;12.15;;;;;;;22.04;83.16;101587.38;5115331;28;20035;-62
2023/07/09 04:08:06;;;;;;;16.17;12.45;;;;;;;21.97;83.27;101581.72;5112382;28;20040;-62
2023/07/09 04:10:32;;;;;;;15.38;13.18;;;;;;;22.07;82.93;101588.91;5118139;27;20027;-62
2023/07/09 04:12:58;;;;;;;15.00;11.80;;;;;;;22.00;83.07;101578.69;5114154;27;20031;-62
2023/07/09 04:15:23;;;;;;;13.90;11.85;;;;;;;22.09;83.25;101587.75;5109430;27;20016;-62
2023/07/09 04:17:49;;;;;;;15.52;12.85;;;;;;;21.92;84.29;101592.16;5103825;27;20027;-62
2023/07/09 04:20:15;;;;;;;15.40;13.02;;;;;;;21.93;84.05;101585.72;5114686;28;20023;-62
2023/07/09 04:22:41;;;;;;;14.63;13.05;;;;;;;22.07;84.15;101588.91;5096433;28;20481;-62
2023/07/09 04:25:09;;;;;;;14.23;12.68;;;;;;;21.96;84.73;101588.13;5113296;27;20123;-62
2023/07/09 04:27:38;;;;;;;16.02;13.48;;;;;;;22.03;84.48;101598.34;5111119;27;20072;-62
2023/07/09 04:30:10;;;;;;;15.60;13.80;;;;;;;21.95;84.97;101599.97;5114546;27;20051;-62
2023/07/09 04:32:36;;;;;;;19.65;13.25;;;;;;;22.00;85.11;101597.66;5099553;28;20028;-62
2023/07/09 04:35:02;;;;;;;16.65;13.45;;;;;;;21.97;85.29;101597.97;5090273;28;20072;-62
2023/07/09 04:37:27;;;;;;;17.83;13.40;;;;;;;22.03;85.40;101584.78;5100831;27;20024;-62
2023/07/09 04:39:53;;;;;;;19.35;12.68;;;;;;;21.98;85.49;101582.56;5099676;28;20016;-61
2023/07/09 04:42:18;;;;;;;16.73;13.88;;;;;;;21.99;85.90;101587.81;5096734;28;20024;-62
2023/07/09 04:44:45;;;;;;;20.02;13.48;;;;;;;22.05;86.02;101582.78;5103544;28;20020;-62
2023/07/09 04:47:12;;;;;;;17.98;13.13;;;;;;;22.09;86.35;101593.19;5108811;28;20057;-62
2023/07/09 04:49:38;;;;;;;14.40;12.82;;;;;;;22.03;86.17;101573.97;5110047;28;20108;-61
2023/07/09 04:52:04;;;;;;;16.92;12.57;;;;;;;22.17;86.28;101587.84;5113102;28;20363;-62
2023/07/09 04:54:30;;;;;;;18.73;13.45;;;;;;;22.17;87.18;101587.84;5105574;28;20032;-62
2023/07/09 04:56:56;;;;;;;15.32;13.73;;;;;;;22.15;86.65;101589.84;5085553;28;20106;-62
2023/07/09 04:59:21;;;;;;;17.13;14.13;;;;;;;22.19;86.90;101585.84;5111252;27;20560;-62
2023/07/09 05:01:47;;;;;;;15.15;13.50;;;;;;;22.31;86.38;101588.34;5092553;27;20042;-62
2023/07/09 05:04:13;;;;;;;16.75;13.75;;;;;;;22.29;87.20;101583.06;5117234;27;20015;-61
2023/07/09 05:06:38;;;;;;;17.33;13.07;;;;;;;22.33;87.40;101589.88;5114428;28;20035;-61
2023/07/09 05:09:05;;;;;;;16.08;13.48;;;;;;;22.34;87.08;101585.31;5104087;27;20035;-61
2023/07/09 05:11:34;;;;;;;18.77;13.55;;;;;;;22.41;85.78;101591.78;5094847;28;20023;-61
2023/07/09 05:14:00;;;;;;;20.10;13.60;;;;;;;22.43;86.16;101585.22;5105998;28;20102;-62
2023/07/09 05:16:25;;;;;;;19.75;13.57;;;;;;;22.51;87.23;101595.28;5098689;28;20119;-61
2023/07/09 05:18:53;;;;;;;16.55;13.88;;;;;;;22.55;87.36;101580.41;5080843;28;20028;-61
2023/07/09 05:21:21;;;;;;;17.98;12.75;;;;;;;22.61;86.78;101584.34;5108060;27;20084;-63
2023/07/09 05:23:47;;;;;;;19.15;12.73;;;;;;;22.64;86.88;101586.75;5110285;27;20490;-61
2023/07/09 05:26:12;;;;;;;17.25;11.80;;;;;;;22.64;86.85;101576.75;5097177;28;20027;-62
2023/07/09 05:28:38;;;;;;;13.88;11.57;;;;;;;22.73;86.86;101590.38;5115641;27;20483;-62
2023/07/09 05:31:04;;;;;;;19.17;12.77;;;;;;;22.71;86.76;101593.25;5108914;28;20034;-62
2023/07/09 05:33:30;;;;;;;17.45;11.90;;;;;;;22.82;84.09;101587.53;5103010;27;20027;-62
2023/07/09 05:35:56;;;;;;;14.98;12.25;;;;;;;22.86;88.07;101578.09;5111890;28;20067;-62
2023/07/09 05:38:21;;;;;;;21.05;12.07;;;;;;;22.91;84.20;101574.88;5093458;28;20020;-62
2023/07/09 05:40:47;;;;;;;15.98;11.48;;;;;;;22.91;84.91;101580.31;5114242;27;20023;-61
2023/07/09 05:43:12;;;;;;;14.45;11.65;;;;;;;23.02;83.66;101576.53;5100949;28;20102;-61
2023/07/09 05:45:41;;;;;;;22.08;12.88;;;;;;;23.15;80.49;101589.66;5112625;28;20028;-61
2023/07/09 05:48:06;;;;;;;15.60;11.15;;;;;;;23.16;80.19;101583.22;5108040;28;20099;-62
2023/07/09 05:50:34;;;;;;;13.88;11.65;;;;;;;23.30;79.32;101588.91;5093787;28;20433;-62
2023/07/09 05:53:00;;;;;;;16.17;11.53;;;;;;;23.28;84.88;101590.06;5075226;28;20487;-62
2023/07/09 05:55:25;;;;;;;15.98;12.00;;;;;;;23.46;78.85;101588.13;5074486;28;20028;-62
2023/07/09 05:57:52;;;;;;;17.50;11.80;;;;;;;23.56;76.60;101590.72;5097089;28;20019;-62
2023/07/09 06:00:18;;;;;;;13.68;11.23;;;;;;;23.63;77.57;101590.91;5097197;28;20063;-62
2023/07/09 06:02:43;;;;;;;18.45;11.95;;;;;;;23.76;74.67;101585.88;5074943;28;20113;-62
2023/07/09 06:05:10;;;;;;;18.52;11.32;;;;;;;23.72;78.09;101585.38;5095446;28;20107;-62
2023/07/09 06:07:37;;;;;;;14.25;10.88;;;;;;;23.89;77.02;101601.72;5095612;28;20094;-61
2023/07/09 06:10:03;;;;;;;16.55;10.90;;;;;;;23.97;77.77;101597.16;5100975;28;20245;-62
2023/07/09 06:12:28;;;;;;;15.38;10.93;;;;;;;23.99;77.32;101597.84;5101290;28;20410;-62
2023/07/09 06:14:53;;;;;;;15.82;11.07;;;;;;;24.08;75.70;101600.56;5094871;28;20161;-62
2023/07/09 06:17:19;;;;;;;16.65;11.10;;;;;;;24.16;75.13;101598.72;5094927;28;20024;-62
2023/07/09 06:19:45;;;;;;;17.13;11.43;;;;;;;24.24;72.98;101606.91;5095348;28;20023;-61
2023/07/09 06:22:10;;;;;;;15.95;10.73;;;;;;;24.29;74.71;101606.38;5099459;28;20027;-61
2023/07/09 06:24:35;;;;;;;16.13;11.00;;;;;;;24.31;74.71;101596.19;5103633;27;20050;-62
2023/07/09 06:27:01;;;;;;;12.52;10.48;;;;;;;24.44;75.09;101595.72;5112805;28;20053;-62
2023/07/09 06:29:29;;;;;;;20.90;11.18;;;;;;;24.43;73.21;101600.31;5097335;28;20035;-62
2023/07/09 06:31:55;;;;;;;15.20;11.00;;;;;;;24.59;71.85;101604.91;5092444;28;20433;-62
2023/07/09 06:34:20;;;;;;;19.88;11.07;;;;;;;24.71;70.83;101602.69;5093238;28;20024;-61
2023/07/09 06:36:46;;;;;;;15.15;10.18;;;;;;;24.79;68.89;101596.38;5096366;27;20394;-61
2023/07/09 06:39:11;;;;;;;17.20;10.73;;;;;;;24.92;68.67;101599.44;5112294;28;20061;-61
2023/07/09 06:41:38;;;;;;;15.38;10.57;;;;;;;25.00;68.32;101606.72;5076118;28;20036;-62
2023/07/09 06:44:08;;;;;;;13.20;9.85;;;;;;;25.02;72.71;101605.53;5093145;28;20107;-61
2023/07/09 06:46:33;;;;;;;11.82;9.93;;;;;;;25.20;67.61;101599.91;5111373;27;20039;-61
2023/07/09 06:48:59;;;;;;;13.20;9.68;;;;;;;25.29;65.52;101598.00;5092008;28;20387;-62
2023/07/09 06:51:24;;;;;;;14.25;10.10;;;;;;;25.38;66.45;101600.56;5073935;28;20073;-61
2023/07/09 06:53:52;;;;;;;12.18;9.00;;;;;;;25.51;65.84;101608.16;5091648;28;20605;-61
2023/07/09 06:56:17;;;;;;;15.07;9.05;;;;;;;25.60;65.26;101614.41;5093731;28;20028;-61
2023/07/09 06:58:45;;;;;;;15.30;8.60;;;;;;;25.63;67.35;101607.78;5113890;27;20077;-61
2023/07/09 07:01:12;;;;;;;16.48;8.68;;;;;;;25.72;64.63;101614.88;5112611;28;20486;-61
2023/07/09 07:03:37;;;;;;;15.07;9.00;;;;;;;25.77;65.04;101607.88;5091534;28;20080;-61
2023/07/09 07:06:05;;;;;;;16.40;8.80;;;;;;;25.86;63.74;101616.03;5092121;28;20024;-61
2023/07/09 07:08:30;;;;;;;9.85;8.05;;;;;;;25.95;62.25;101618.53;5112063;28;20051;-61
2023/07/09 07:11:04;;;;;;;12.25;8.43;;;;;;;26.05;61.99;101623.75;5106759;28;20475;-61
2023/07/09 07:13:31;;;;;;;11.30;8.18;;;;;;;26.08;62.17;101619.81;5091142;28;20054;-61
2023/07/09 07:15:59;;;;;;;10.52;8.00;;;;;;;26.01;66.24;101601.47;5092305;28;20085;-61
2023/07/09 07:18:24;;;;;;;11.85;8.60;;;;;;;26.29;61.28;101630.91;5110447;28;20024;-62
2023/07/09 07:20:50;;;;;;;12.80;8.85;;;;;;;26.28;60.34;101624.63;5094073;28;20106;-61
2023/07/09 07:23:16;;;;;;;15.90;9.13;;;;;;;26.44;59.47;101631.84;5110750;28;20020;-61
2023/07/09 07:25:41;;;;;;;15.32;9.02;;;;;;;26.49;58.40;101634.03;5109083;28;20488;-62
2023/07/09 07:28:09;;;;;;;11.43;8.00;;;;;;;26.62;58.69;101636.16;5111957;28;20028;-61
2023/07/09 07:30:37;;;;;;;9.40;7.32;;;;;;;26.66;58.20;101635.63;5093740;28;20023;-62
2023/07/09 07:33:02;;;;;;;10.82;7.15;;;;;;;26.71;57.89;101635.09;5111972;28;20027;-61
2023/07/09 07:35:28;;;;;;;11.93;7.35;;;;;;;26.79;58.08;101634.16;5097668;28;20402;-61
2023/07/09 07:37:53;;;;;;;12.63;7.05;;;;;;;26.85;57.32;101628.78;5091864;28;20032;-61
2023/07/09 07:40:19;;;;;;;12.93;7.32;;;;;;;26.82;60.35;101626.44;5091801;28;20024;-61
2023/07/09 07:42:47;;;;;;;12.25;7.53;;;;;;;26.93;57.90;101623.25;5107129;28;20044;-61
2023/07/09 07:45:12;;;;;;;12.95;7.55;;;;;;;26.91;57.43;101621.75;5111349;28;20027;-61
2023/07/09 07:47:39;;;;;;;10.88;7.57;;;;;;;27.02;58.03;101618.56;5100558;28;20036;-61
2023/07/09 07:50:08;;;;;;;10.77;7.57;;;;;;;27.11;57.88;101622.06;5073328;28;20024;-61
2023/07/09 07:52:37;;;;;;;13.10;7.47;;;;;;;27.23;54.76;101634.25;5091502;28;20085;-61
2023/07/09 07:55:06;;;;;;;10.82;7.82;;;;;;;27.37;55.00;101619.75;5091065;28;20474;-61
2023/07/09 07:57:32;;;;;;;12.05;7.15;;;;;;;27.25;57.92;101620.41;5104031;28;20398;-62
2023/07/09 07:59:57;;;;;;;10.57;6.93;;;;;;;27.40;56.02;101627.56;5088991;28;20042;-61
2023/07/09 08:02:23;;;;;;;14.02;7.45;;;;;;;27.31;54.66;101625.97;5098509;28;20024;-61
2023/07/09 08:04:50;;;;;;;11.70;7.45;;;;;;;27.23;58.38;101619.75;5111870;28;20020;-61
2023/07/09 08:07:18;;;;;;;8.55;7.65;;;;;;;27.33;57.11;101612.13;5093638;28;20048;-61
2023/07/09 08:09:44;;;;;;;9.10;6.95;;;;;;;27.30;55.52;101616.09;5093748;28;20026;-61
2023/07/09 08:12:12;;;;;;;9.68;6.70;;;;;;;27.38;55.52;101621.47;5099554;28;20081;-61
2023/07/09 08:14:39;;;;;;;12.27;7.63;;;;;;;27.36;54.70;101615.34;5093038;28;20031;-61
2023/07/09 08:17:05;;;;;;;11.77;7.53;;;;;;;27.35;55.22;101605.41;5107006;28;20085;-61
2023/07/09 08:19:43;;;;;;;11.77;7.20;;;;;;;27.48;55.33;101606.66;5111647;28;20099;-62
2023/07/09 08:22:11;;;;;;;11.77;6.97;;;;;;;27.51;55.14;101615.31;5107504;28;20067;-66
2023/07/09 08:24:37;;;;;;;12.73;7.20;;;;;;;27.56;57.07;101618.34;5112347;28;20467;-63
2023/07/09 08:27:03;;;;;;;12.80;7.20;;;;;;;27.63;54.64;101615.69;5081425;28;20035;-63
2023/07/09 08:29:28;;;;;;;11.30;6.80;;;;;;;27.63;55.44;101610.22;5094500;28;20600;-63
2023/07/09 08:31:54;;;;;;;12.35;6.88;;;;;;;27.69;55.37;101609.44;5094997;28;20107;-65
2023/07/09 08:34:19;;;;;;;11.32;7.20;;;;;;;27.70;55.64;101611.13;5110781;27;20054;-68
2023/07/09 08:36:44;;;;;;;12.70;8.10;;;;;;;27.71;54.37;101603.78;5090222;28;20024;-70
2023/07/09 08:39:10;;;;;;;13.93;8.35;;;;;;;27.71;54.60;101604.66;5075956;28;20108;-70
2023/07/09 08:41:37;;;;;;;10.80;7.43;;;;;;;27.79;55.87;101606.44;5094763;28;20112;-70
2023/07/09 08:44:14;;;;;;;9.93;8.23;;;;;;;27.86;54.51;101610.13;5077105;28;20036;-69
2023/07/09 08:46:58;;;;;;;9.98;7.78;;;;;;;27.85;55.13;101612.00;5081024;28;20050;-70
2023/07/09 08:49:31;;;;;;;15.77;7.55;;;;;;;27.94;55.63;101606.41;5114653;28;20113;-71
2023/07/09 08:51:57;;;;;;;9.95;7.25;;;;;;;27.89;55.02;101614.38;5113956;27;20023;-69
2023/07/09 08:54:30;;;;;;;15.23;7.72;;;;;;;27.94;58.81;101603.66;5098066;27;20034;-70
2023/07/09 08:57:02;;;;;;;10.88;7.57;;;;;;;28.02;55.15;101618.06;5095288;27;20062;-69
2023/07/09 08:59:28;;;;;;;9.85;7.80;;;;;;;28.09;55.46;101609.97;5107655;27;20586;-71
2023/07/09 09:01:59;;;;;;;14.88;8.13;;;;;;;28.10;54.11;101608.91;5086578;28;20023;-72
2023/07/09 09:04:29;;;;;;;12.27;7.65;;;;;;;28.21;54.12;101610.31;5116556;27;20027;-73
2023/07/09 09:07:19;;;;;;;13.32;7.70;;;;;;;28.25;56.13;101595.19;5114234;27;20055;-68
2023/07/09 09:09:52;;;;;;;11.73;7.50;;;;;;;28.33;56.92;101591.47;5114356;28;20076;-70
2023/07/09 09:12:21;;;;;;;12.80;8.13;;;;;;;28.38;54.26;101595.28;5087650;28;20390;-65
2023/07/09 09:15:02;;;;;;;10.10;7.40;;;;;;;28.44;53.32;101601.91;5093997;28;20031;-66
2023/07/09 09:17:29;;;;;;;13.02;6.63;;;;;;;28.45;53.29;101590.78;5090855;28;20027;-64
2023/07/09 09:20:03;;;;;;;12.30;7.10;;;;;;;28.56;51.83;101603.09;5096366;28;20421;-65
2023/07/09 09:22:49;;;;;;;10.57;6.90;;;;;;;28.62;52.56;101601.44;5109476;28;20043;-65
2023/07/09 09:25:14;;;;;;;15.13;7.13;;;;;;;28.71;53.74;101592.91;5102527;28;20517;-72
2023/07/09 09:27:40;;;;;;;13.68;6.93;;;;;;;28.78;55.19;101581.16;5114360;28;20066;-77
2023/07/09 09:30:14;;;;;;;9.10;6.70;;;;;;;28.78;54.59;101587.47;5113383;28;20047;-68
2023/07/09 09:32:48;;;;;;;7.93;6.22;;;;;;;28.87;51.71;101578.03;5106793;28;20066;-69
2023/07/09 09:35:19;;;;;;;9.68;6.00;;;;;;;28.95;51.74;101579.78;5092976;28;20027;-74
2023/07/09 09:37:55;;;;;;;10.63;6.38;;;;;;;28.90;50.33;101569.44;5096692;28;20031;-74
2023/07/09 09:40:23;;;;;;;13.80;7.70;;;;;;;29.08;51.05;101571.69;5078379;28;20035;-70
2023/07/09 09:42:54;;;;;;;9.00;6.35;;;;;;;29.17;52.26;101575.09;5082809;28;20024;-75
2023/07/09 09:45:21;;;;;;;10.52;6.18;;;;;;;29.22;51.39;101567.13;5076393;28;20502;-71
2023/07/09 09:47:48;;;;;;;7.97;6.28;;;;;;;29.23;51.76;101562.50;5075430;28;20020;-74
2023/07/09 09:50:19;;;;;;;11.90;6.85;;;;;;;29.27;49.60;101559.16;5123437;27;20033;-70
2023/07/09 09:52:46;;;;;;;9.80;5.97;;;;;;;29.41;49.18;101552.69;5093452;28;20032;-71
2023/07/09 09:55:39;;;;;;;9.88;5.72;;;;;;;29.45;50.68;101546.81;5078308;28;20061;-71
2023/07/09 09:58:14;;;;;;;12.18;6.07;;;;;;;29.56;49.27;101552.53;5094928;28;20088;-70
2023/07/09 10:00:39;;;;;;;9.02;5.93;;;;;;;29.48;48.46;101529.94;5114020;28;20031;-70
2023/07/09 10:03:06;;;;;;;8.60;6.03;;;;;;;29.68;50.32;101544.59;5110152;27;20020;-67
2023/07/09 10:05:46;;;;;;;9.13;6.40;;;;;;;29.65;49.53;101553.25;5111204;27;20274;-71
2023/07/09 10:08:28;;;;;;;11.27;6.78;;;;;;;29.78;50.35;101558.75;5074542;28;20075;-71
2023/07/09 10:11:07;;;;;;;14.02;7.38;;;;;;;29.87;50.75;101556.66;5093722;27;20528;-72
2023/07/09 10:13:41;;;;;;;10.93;7.40;;;;;;;30.02;50.57;101556.50;5074555;28;20032;-68
2023/07/09 10:16:09;;;;;;;7.47;6.32;;;;;;;30.20;49.15;101555.88;5094053;28;20489;-73
2023/07/09 10:19:02;;;;;;;11.38;7.10;;;;;;;30.12;49.95;101570.66;5092791;28;20081;-74
2023/07/09 10:21:36;;;;;;;14.20;7.20;;;;;;;30.20;49.53;101569.59;5093329;27;20356;-72
2023/07/09 10:24:12;;;;;;;9.10;6.22;;;;;;;30.26;46.67;101585.25;5122217;27;20428;-70
2023/07/09 10:26:46;;;;;;;8.10;6.32;;;;;;;30.26;46.92;101583.34;5095259;28;20020;-68
2023/07/09 10:29:30;;;;;;;8.50;6.35;;;;;;;30.37;48.77;101581.06;5092534;27;20059;-71
2023/07/09 10:32:09;;;;;;;10.85;6.25;;;;;;;30.26;46.36;101577.88;5074296;28;20024;-74
2023/07/09 10:35:23;;;;;;;7.97;6.10;;;;;;;30.37;47.03;101584.66;5108301;27;20031;-69
2023/07/09 10:38:04;;;;;;;9.90;6.40;;;;;;;30.49;46.79;101580.22;5073296;28;20510;-71
2023/07/09 10:40:32;;;;;;;8.30;6.07;;;;;;;30.59;47.11;101578.94;5113050;27;20390;-73
2023/07/09 10:43:00;;;;;;;;;;;;;;;30.60;47.65;101591.63;5111968;27;20027;-73
2023/07/09 10:45:33;;;;;;;9.60;6.72;;;;;;;30.73;46.89;101578.72;5087759;28;19919;-77
2023/07/09 10:48:09;;;;;;;8.15;5.55;;;;;;;30.75;45.89;101568.38;5067472;28;20039;-70
2023/07/09 10:50:40;;;;;;;15.02;6.95;;;;;;;30.89;47.15;101577.47;5087689;28;20066;-72
2023/07/09 10:53:45;;;;;;;8.32;5.70;;;;;;;30.94;48.52;101560.34;5117129;27;20023;-72
2023/07/09 10:56:24;;;;;;;6.53;5.53;;;;;;;30.96;48.08;101561.81;5091764;28;20031;-66
2023/07/09 10:59:01;;;;;;;9.68;6.72;;;;;;;31.06;45.75;101560.53;5113213;28;20037;-67
2023/07/09 11:01:33;;;;;;;10.68;5.63;;;;;;;31.07;47.59;101562.22;5094358;28;20020;-67
2023/07/09 11:04:06;;;;;;;10.15;5.80;;;;;;;31.00;46.29;101563.09;5111696;28;20540;-67
2023/07/09 11:06:39;;;;;;;9.23;6.20;;;;;;;30.93;47.08;101562.25;5111552;27;20076;-67
2023/07/09 11:09:18;;;;;;;10.77;6.18;;;;;;;30.95;47.68;101551.06;5087947;28;20052;-67
2023/07/09 11:11:45;;;;;;;;;;;;;;;31.01;48.17;101561.19;5090939;28;20035;-66
2023/07/09 11:14:46;;;;;;;9.97;5.73;;;;;;;31.02;46.60;101571.09;5084641;28;19912;-66
2023/07/09 11:17:17;;;;;;;6.40;5.63;;;;;;;30.98;45.69;101580.84;5077158;28;20282;-66
2023/07/09 11:19:46;;;;;;;9.68;5.57;;;;;;;31.05;45.37;101584.41;5093487;28;20432;-66
2023/07/09 11:22:26;;;;;;;7.95;5.50;;;;;;;31.05;45.31;101592.66;5090557;28;20019;-66